sensor_id;sensor_type;location;lat;lon;timestamp;P1;durP1;ratioP1;P2;durP2;ratioP2
1591;SDS011;789;51.612;7.510;2024-02-04T00:00:58;34.63;;;28.37;;
1591;SDS011;789;51.612;7.510;2024-02-04T00:03:25;32.60;;;28.07;;
1591;SDS011;789;51.612;7.510;2024-02-04T00:05:51;37.30;;;28.53;;
1591;SDS011;789;51.612;7.510;2024-02-04T00:08:18;38.57;;;30.10;;
1591;SDS011;789;51.612;7.510;2024-02-04T00:10:45;37.23;;;29.27;;
1591;SDS011;789;51.612;7.510;2024-02-04T00:13:13;35.50;;;29.20;;
1591;SDS011;789;51.612;7.510;2024-02-04T00:15:39;38.00;;;28.53;;
1591;SDS011;789;51.612;7.510;2024-02-04T00:18:06;34.37;;;28.47;;
1591;SDS011;789;51.612;7.510;2024-02-04T00:20:33;32.53;;;28.27;;
1591;SDS011;789;51.612;7.510;2024-02-04T00:23:00;34.60;;;27.83;;
1591;SDS011;789;51.612;7.510;2024-02-04T00:25:26;31.33;;;27.73;;
1591;SDS011;789;51.612;7.510;2024-02-04T00:27:54;30.40;;;26.00;;
1591;SDS011;789;51.612;7.510;2024-02-04T00:30:22;31.07;;;26.50;;
1591;SDS011;789;51.612;7.510;2024-02-04T00:32:49;38.87;;;26.67;;
1591;SDS011;789;51.612;7.510;2024-02-04T00:35:15;32.07;;;26.30;;
1591;SDS011;789;51.612;7.510;2024-02-04T00:37:42;28.60;;;24.43;;
1591;SDS011;789;51.612;7.510;2024-02-04T00:40:09;30.57;;;26.87;;
1591;SDS011;789;51.612;7.510;2024-02-04T00:42:37;27.30;;;24.40;;
1591;SDS011;789;51.612;7.510;2024-02-04T00:45:04;32.73;;;24.17;;
1591;SDS011;789;51.612;7.510;2024-02-04T00:47:32;29.43;;;25.70;;
1591;SDS011;789;51.612;7.510;2024-02-04T00:49:59;33.77;;;23.83;;
1591;SDS011;789;51.612;7.510;2024-02-04T00:52:25;26.00;;;23.20;;
1591;SDS011;789;51.612;7.510;2024-02-04T00:54:52;31.90;;;23.47;;
1591;SDS011;789;51.612;7.510;2024-02-04T00:57:18;25.50;;;22.27;;
1591;SDS011;789;51.612;7.510;2024-02-04T00:59:45;24.80;;;20.87;;
1591;SDS011;789;51.612;7.510;2024-02-04T01:02:12;21.63;;;19.43;;
1591;SDS011;789;51.612;7.510;2024-02-04T01:04:40;20.77;;;18.60;;
1591;SDS011;789;51.612;7.510;2024-02-04T01:07:07;21.13;;;19.03;;
1591;SDS011;789;51.612;7.510;2024-02-04T01:09:34;22.60;;;18.37;;
1591;SDS011;789;51.612;7.510;2024-02-04T01:12:00;18.90;;;16.77;;
1591;SDS011;789;51.612;7.510;2024-02-04T01:14:28;20.77;;;18.23;;
1591;SDS011;789;51.612;7.510;2024-02-04T01:16:54;18.93;;;17.03;;
1591;SDS011;789;51.612;7.510;2024-02-04T01:19:21;20.90;;;18.10;;
1591;SDS011;789;51.612;7.510;2024-02-04T01:21:49;19.27;;;17.37;;
1591;SDS011;789;51.612;7.510;2024-02-04T01:24:15;22.07;;;19.83;;
1591;SDS011;789;51.612;7.510;2024-02-04T01:26:42;19.23;;;17.23;;
1591;SDS011;789;51.612;7.510;2024-02-04T01:29:08;21.57;;;18.63;;
1591;SDS011;789;51.612;7.510;2024-02-04T01:31:35;19.73;;;17.03;;
1591;SDS011;789;51.612;7.510;2024-02-04T01:34:02;19.30;;;17.30;;
1591;SDS011;789;51.612;7.510;2024-02-04T01:36:29;18.63;;;16.73;;
1591;SDS011;789;51.612;7.510;2024-02-04T01:38:57;15.93;;;13.50;;
1591;SDS011;789;51.612;7.510;2024-02-04T01:41:24;14.80;;;13.10;;
1591;SDS011;789;51.612;7.510;2024-02-04T01:43:52;13.30;;;12.10;;
1591;SDS011;789;51.612;7.510;2024-02-04T01:46:20;11.40;;;10.30;;
1591;SDS011;789;51.612;7.510;2024-02-04T01:48:47;12.23;;;11.00;;
1591;SDS011;789;51.612;7.510;2024-02-04T01:51:14;11.40;;;10.23;;
1591;SDS011;789;51.612;7.510;2024-02-04T01:53:44;10.87;;;9.77;;
1591;SDS011;789;51.612;7.510;2024-02-04T01:56:14;9.77;;;8.80;;
1591;SDS011;789;51.612;7.510;2024-02-04T01:58:41;9.53;;;8.63;;
1591;SDS011;789;51.612;7.510;2024-02-04T02:01:09;10.77;;;8.33;;
1591;SDS011;789;51.612;7.510;2024-02-04T02:03:36;8.50;;;7.70;;
1591;SDS011;789;51.612;7.510;2024-02-04T02:06:05;9.10;;;8.20;;
1591;SDS011;789;51.612;7.510;2024-02-04T02:08:32;9.07;;;8.27;;
1591;SDS011;789;51.612;7.510;2024-02-04T02:11:02;8.03;;;7.33;;
1591;SDS011;789;51.612;7.510;2024-02-04T02:13:34;7.50;;;6.80;;
1591;SDS011;789;51.612;7.510;2024-02-04T02:16:04;8.07;;;7.33;;
1591;SDS011;789;51.612;7.510;2024-02-04T02:18:37;7.83;;;7.10;;
1591;SDS011;789;51.612;7.510;2024-02-04T02:21:17;7.80;;;7.20;;
1591;SDS011;789;51.612;7.510;2024-02-04T02:23:53;8.10;;;7.40;;
1591;SDS011;789;51.612;7.510;2024-02-04T02:26:38;8.20;;;7.50;;
1591;SDS011;789;51.612;7.510;2024-02-04T02:29:07;8.60;;;7.87;;
1591;SDS011;789;51.612;7.510;2024-02-04T02:31:34;8.93;;;8.13;;
1591;SDS011;789;51.612;7.510;2024-02-04T02:34:02;9.60;;;8.70;;
1591;SDS011;789;51.612;7.510;2024-02-04T02:36:29;9.87;;;8.90;;
1591;SDS011;789;51.612;7.510;2024-02-04T02:39:03;9.50;;;8.53;;
1591;SDS011;789;51.612;7.510;2024-02-04T02:41:36;10.70;;;9.70;;
1591;SDS011;789;51.612;7.510;2024-02-04T02:44:06;11.57;;;9.43;;
1591;SDS011;789;51.612;7.510;2024-02-04T02:46:35;10.70;;;9.70;;
1591;SDS011;789;51.612;7.510;2024-02-04T02:49:02;10.83;;;9.83;;
1591;SDS011;789;51.612;7.510;2024-02-04T02:51:29;10.70;;;9.60;;
1591;SDS011;789;51.612;7.510;2024-02-04T02:53:59;12.97;;;11.20;;
1591;SDS011;789;51.612;7.510;2024-02-04T02:56:25;12.40;;;11.20;;
1591;SDS011;789;51.612;7.510;2024-02-04T02:58:53;12.53;;;11.23;;
1591;SDS011;789;51.612;7.510;2024-02-04T03:01:20;13.03;;;11.83;;
1591;SDS011;789;51.612;7.510;2024-02-04T03:03:48;13.20;;;11.83;;
1591;SDS011;789;51.612;7.510;2024-02-04T03:06:15;13.83;;;12.23;;
1591;SDS011;789;51.612;7.510;2024-02-04T03:08:42;12.90;;;11.60;;
1591;SDS011;789;51.612;7.510;2024-02-04T03:11:08;14.10;;;12.60;;
1591;SDS011;789;51.612;7.510;2024-02-04T03:13:37;14.20;;;12.70;;
1591;SDS011;789;51.612;7.510;2024-02-04T03:16:09;15.40;;;12.70;;
1591;SDS011;789;51.612;7.510;2024-02-04T03:18:36;16.40;;;14.67;;
1591;SDS011;789;51.612;7.510;2024-02-04T03:21:10;18.33;;;14.53;;
1591;SDS011;789;51.612;7.510;2024-02-04T03:23:38;17.27;;;14.70;;
1591;SDS011;789;51.612;7.510;2024-02-04T03:26:04;18.83;;;14.40;;
1591;SDS011;789;51.612;7.510;2024-02-04T03:28:31;18.93;;;15.30;;
1591;SDS011;789;51.612;7.510;2024-02-04T03:30:58;17.47;;;14.53;;
1591;SDS011;789;51.612;7.510;2024-02-04T03:33:26;20.23;;;15.40;;
1591;SDS011;789;51.612;7.510;2024-02-04T03:35:52;19.63;;;15.73;;
1591;SDS011;789;51.612;7.510;2024-02-04T03:38:19;19.97;;;15.00;;
1591;SDS011;789;51.612;7.510;2024-02-04T03:40:46;21.27;;;14.87;;
1591;SDS011;789;51.612;7.510;2024-02-04T03:43:14;20.37;;;14.87;;
1591;SDS011;789;51.612;7.510;2024-02-04T03:45:41;18.73;;;14.53;;
1591;SDS011;789;51.612;7.510;2024-02-04T03:48:07;22.27;;;14.80;;
1591;SDS011;789;51.612;7.510;2024-02-04T03:50:36;17.70;;;14.77;;
1591;SDS011;789;51.612;7.510;2024-02-04T03:53:03;18.93;;;15.00;;
1591;SDS011;789;51.612;7.510;2024-02-04T03:55:30;20.40;;;15.30;;
1591;SDS011;789;51.612;7.510;2024-02-04T03:57:57;18.13;;;15.10;;
1591;SDS011;789;51.612;7.510;2024-02-04T04:00:24;19.40;;;15.13;;
1591;SDS011;789;51.612;7.510;2024-02-04T04:02:51;20.40;;;15.90;;
1591;SDS011;789;51.612;7.510;2024-02-04T04:05:18;20.00;;;15.77;;
1591;SDS011;789;51.612;7.510;2024-02-04T04:07:46;20.03;;;15.67;;
1591;SDS011;789;51.612;7.510;2024-02-04T04:10:12;19.83;;;15.10;;
1591;SDS011;789;51.612;7.510;2024-02-04T04:12:39;18.00;;;15.17;;
1591;SDS011;789;51.612;7.510;2024-02-04T04:15:06;19.90;;;15.77;;
1591;SDS011;789;51.612;7.510;2024-02-04T04:17:33;19.20;;;16.60;;
1591;SDS011;789;51.612;7.510;2024-02-04T04:20:00;21.20;;;16.30;;
1591;SDS011;789;51.612;7.510;2024-02-04T04:22:27;21.23;;;16.30;;
1591;SDS011;789;51.612;7.510;2024-02-04T04:24:55;20.97;;;16.57;;
1591;SDS011;789;51.612;7.510;2024-02-04T04:27:21;23.33;;;16.77;;
1591;SDS011;789;51.612;7.510;2024-02-04T04:29:48;22.37;;;16.50;;
1591;SDS011;789;51.612;7.510;2024-02-04T04:32:15;25.00;;;18.40;;
1591;SDS011;789;51.612;7.510;2024-02-04T04:34:42;29.00;;;19.77;;
1591;SDS011;789;51.612;7.510;2024-02-04T04:37:08;24.90;;;18.77;;
1591;SDS011;789;51.612;7.510;2024-02-04T04:39:35;28.90;;;20.20;;
1591;SDS011;789;51.612;7.510;2024-02-04T04:42:03;24.57;;;19.93;;
1591;SDS011;789;51.612;7.510;2024-02-04T04:44:30;25.13;;;20.03;;
1591;SDS011;789;51.612;7.510;2024-02-04T04:46:57;30.77;;;20.60;;
1591;SDS011;789;51.612;7.510;2024-02-04T04:49:24;29.90;;;21.30;;
1591;SDS011;789;51.612;7.510;2024-02-04T04:51:51;31.33;;;21.63;;
1591;SDS011;789;51.612;7.510;2024-02-04T04:54:18;30.63;;;21.17;;
1591;SDS011;789;51.612;7.510;2024-02-04T04:56:45;33.00;;;22.90;;
1591;SDS011;789;51.612;7.510;2024-02-04T04:59:14;28.70;;;22.30;;
1591;SDS011;789;51.612;7.510;2024-02-04T05:01:44;33.30;;;24.40;;
1591;SDS011;789;51.612;7.510;2024-02-04T05:04:12;34.17;;;25.20;;
1591;SDS011;789;51.612;7.510;2024-02-04T05:06:39;33.63;;;25.20;;
1591;SDS011;789;51.612;7.510;2024-02-04T05:09:05;35.23;;;26.87;;
1591;SDS011;789;51.612;7.510;2024-02-04T05:11:32;37.27;;;27.17;;
1591;SDS011;789;51.612;7.510;2024-02-04T05:13:59;40.43;;;27.90;;
1591;SDS011;789;51.612;7.510;2024-02-04T05:16:27;36.03;;;26.30;;
1591;SDS011;789;51.612;7.510;2024-02-04T05:18:54;41.27;;;29.50;;
1591;SDS011;789;51.612;7.510;2024-02-04T05:21:20;38.23;;;27.93;;
1591;SDS011;789;51.612;7.510;2024-02-04T05:23:47;42.50;;;28.80;;
1591;SDS011;789;51.612;7.510;2024-02-04T05:26:14;40.70;;;29.00;;
1591;SDS011;789;51.612;7.510;2024-02-04T05:28:43;38.33;;;28.10;;
1591;SDS011;789;51.612;7.510;2024-02-04T05:31:10;38.10;;;29.03;;
1591;SDS011;789;51.612;7.510;2024-02-04T05:33:38;41.13;;;29.43;;
1591;SDS011;789;51.612;7.510;2024-02-04T05:36:05;39.23;;;29.00;;
1591;SDS011;789;51.612;7.510;2024-02-04T05:38:32;39.57;;;29.33;;
1591;SDS011;789;51.612;7.510;2024-02-04T05:40:59;36.93;;;26.80;;
1591;SDS011;789;51.612;7.510;2024-02-04T05:43:26;32.00;;;24.50;;
1591;SDS011;789;51.612;7.510;2024-02-04T05:45:53;34.23;;;24.30;;
1591;SDS011;789;51.612;7.510;2024-02-04T05:48:20;33.23;;;23.53;;
1591;SDS011;789;51.612;7.510;2024-02-04T05:50:48;33.33;;;22.57;;
1591;SDS011;789;51.612;7.510;2024-02-04T05:53:14;31.17;;;23.30;;
1591;SDS011;789;51.612;7.510;2024-02-04T05:55:41;28.67;;;22.93;;
1591;SDS011;789;51.612;7.510;2024-02-04T05:58:08;29.47;;;22.17;;
1591;SDS011;789;51.612;7.510;2024-02-04T06:00:35;30.80;;;22.03;;
1591;SDS011;789;51.612;7.510;2024-02-04T06:03:02;29.30;;;22.50;;
1591;SDS011;789;51.612;7.510;2024-02-04T06:05:29;31.13;;;22.27;;
1591;SDS011;789;51.612;7.510;2024-02-04T06:07:57;38.00;;;22.17;;
1591;SDS011;789;51.612;7.510;2024-02-04T06:10:24;32.53;;;22.00;;
1591;SDS011;789;51.612;7.510;2024-02-04T06:12:51;29.00;;;22.27;;
1591;SDS011;789;51.612;7.510;2024-02-04T06:15:18;30.97;;;21.53;;
1591;SDS011;789;51.612;7.510;2024-02-04T06:17:46;38.10;;;21.97;;
1591;SDS011;789;51.612;7.510;2024-02-04T06:20:12;33.73;;;23.27;;
1591;SDS011;789;51.612;7.510;2024-02-04T06:22:39;30.93;;;22.30;;
1591;SDS011;789;51.612;7.510;2024-02-04T06:25:08;36.43;;;23.40;;
1591;SDS011;789;51.612;7.510;2024-02-04T06:27:34;29.17;;;22.53;;
1591;SDS011;789;51.612;7.510;2024-02-04T06:30:02;33.10;;;22.90;;
1591;SDS011;789;51.612;7.510;2024-02-04T06:32:29;31.60;;;21.50;;
1591;SDS011;789;51.612;7.510;2024-02-04T06:34:56;26.00;;;20.47;;
1591;SDS011;789;51.612;7.510;2024-02-04T06:37:23;29.37;;;20.43;;
1591;SDS011;789;51.612;7.510;2024-02-04T06:39:50;28.90;;;20.37;;
1591;SDS011;789;51.612;7.510;2024-02-04T06:42:19;26.20;;;18.93;;
1591;SDS011;789;51.612;7.510;2024-02-04T06:44:46;27.27;;;19.97;;
1591;SDS011;789;51.612;7.510;2024-02-04T06:47:12;22.77;;;18.23;;
1591;SDS011;789;51.612;7.510;2024-02-04T06:49:39;21.80;;;18.67;;
1591;SDS011;789;51.612;7.510;2024-02-04T06:52:09;27.50;;;21.37;;
1591;SDS011;789;51.612;7.510;2024-02-04T06:54:36;27.10;;;21.17;;
1591;SDS011;789;51.612;7.510;2024-02-04T06:57:03;28.27;;;20.50;;
1591;SDS011;789;51.612;7.510;2024-02-04T06:59:32;28.17;;;21.67;;
1591;SDS011;789;51.612;7.510;2024-02-04T07:01:58;32.00;;;22.33;;
1591;SDS011;789;51.612;7.510;2024-02-04T07:04:25;33.20;;;22.60;;
1591;SDS011;789;51.612;7.510;2024-02-04T07:06:52;31.43;;;22.83;;
1591;SDS011;789;51.612;7.510;2024-02-04T07:09:18;34.50;;;24.87;;
1591;SDS011;789;51.612;7.510;2024-02-04T07:11:45;33.70;;;26.00;;
1591;SDS011;789;51.612;7.510;2024-02-04T07:14:12;36.90;;;24.80;;
1591;SDS011;789;51.612;7.510;2024-02-04T07:16:40;34.03;;;24.00;;
1591;SDS011;789;51.612;7.510;2024-02-04T07:19:07;33.50;;;24.07;;
1591;SDS011;789;51.612;7.510;2024-02-04T07:21:34;33.03;;;23.53;;
1591;SDS011;789;51.612;7.510;2024-02-04T07:24:01;30.40;;;22.40;;
1591;SDS011;789;51.612;7.510;2024-02-04T07:26:27;31.63;;;22.07;;
1591;SDS011;789;51.612;7.510;2024-02-04T07:28:54;31.20;;;23.10;;
1591;SDS011;789;51.612;7.510;2024-02-04T07:31:21;30.37;;;22.37;;
1591;SDS011;789;51.612;7.510;2024-02-04T07:33:49;29.40;;;21.90;;
1591;SDS011;789;51.612;7.510;2024-02-04T07:36:16;26.77;;;22.37;;
1591;SDS011;789;51.612;7.510;2024-02-04T07:38:43;31.57;;;22.90;;
1591;SDS011;789;51.612;7.510;2024-02-04T07:41:09;27.70;;;22.03;;
1591;SDS011;789;51.612;7.510;2024-02-04T07:43:39;27.50;;;22.90;;
1591;SDS011;789;51.612;7.510;2024-02-04T07:46:07;30.77;;;23.97;;
1591;SDS011;789;51.612;7.510;2024-02-04T07:48:34;30.23;;;23.63;;
1591;SDS011;789;51.612;7.510;2024-02-04T07:51:02;31.50;;;22.80;;
1591;SDS011;789;51.612;7.510;2024-02-04T07:53:29;29.53;;;24.57;;
1591;SDS011;789;51.612;7.510;2024-02-04T07:55:56;34.97;;;24.00;;
1591;SDS011;789;51.612;7.510;2024-02-04T07:58:23;31.87;;;23.13;;
1591;SDS011;789;51.612;7.510;2024-02-04T08:00:51;30.83;;;23.13;;
1591;SDS011;789;51.612;7.510;2024-02-04T08:03:17;33.40;;;24.53;;
1591;SDS011;789;51.612;7.510;2024-02-04T08:05:44;30.83;;;24.43;;
1591;SDS011;789;51.612;7.510;2024-02-04T08:08:12;28.43;;;22.23;;
1591;SDS011;789;51.612;7.510;2024-02-04T08:10:39;29.70;;;21.83;;
1591;SDS011;789;51.612;7.510;2024-02-04T08:13:06;26.50;;;21.33;;
1591;SDS011;789;51.612;7.510;2024-02-04T08:15:32;26.83;;;21.40;;
1591;SDS011;789;51.612;7.510;2024-02-04T08:17:59;25.03;;;20.70;;
1591;SDS011;789;51.612;7.510;2024-02-04T08:20:26;24.93;;;20.40;;
1591;SDS011;789;51.612;7.510;2024-02-04T08:22:53;21.53;;;19.23;;
1591;SDS011;789;51.612;7.510;2024-02-04T08:25:21;25.30;;;19.00;;
1591;SDS011;789;51.612;7.510;2024-02-04T08:27:48;21.43;;;19.03;;
1591;SDS011;789;51.612;7.510;2024-02-04T08:30:15;19.63;;;17.33;;
1591;SDS011;789;51.612;7.510;2024-02-04T08:32:44;21.80;;;16.93;;
1591;SDS011;789;51.612;7.510;2024-02-04T08:35:11;19.20;;;16.43;;
1591;SDS011;789;51.612;7.510;2024-02-04T08:37:38;20.13;;;16.17;;
1591;SDS011;789;51.612;7.510;2024-02-04T08:40:05;18.60;;;15.83;;
1591;SDS011;789;51.612;7.510;2024-02-04T08:42:34;22.70;;;15.73;;
1591;SDS011;789;51.612;7.510;2024-02-04T08:45:01;21.17;;;15.63;;
1591;SDS011;789;51.612;7.510;2024-02-04T08:47:28;18.90;;;16.27;;
1591;SDS011;789;51.612;7.510;2024-02-04T08:49:55;16.67;;;14.77;;
1591;SDS011;789;51.612;7.510;2024-02-04T08:52:22;18.10;;;15.23;;
1591;SDS011;789;51.612;7.510;2024-02-04T08:54:50;19.60;;;15.90;;
1591;SDS011;789;51.612;7.510;2024-02-04T08:57:16;17.90;;;13.80;;
1591;SDS011;789;51.612;7.510;2024-02-04T08:59:44;19.27;;;12.80;;
1591;SDS011;789;51.612;7.510;2024-02-04T09:02:11;14.13;;;11.60;;
1591;SDS011;789;51.612;7.510;2024-02-04T09:04:38;23.60;;;12.53;;
1591;SDS011;789;51.612;7.510;2024-02-04T09:07:06;12.30;;;11.10;;
1591;SDS011;789;51.612;7.510;2024-02-04T09:09:33;14.07;;;11.03;;
1591;SDS011;789;51.612;7.510;2024-02-04T09:11:59;11.97;;;10.67;;
1591;SDS011;789;51.612;7.510;2024-02-04T09:14:26;12.37;;;8.50;;
1591;SDS011;789;51.612;7.510;2024-02-04T09:16:54;12.23;;;8.47;;
1591;SDS011;789;51.612;7.510;2024-02-04T09:19:25;9.60;;;8.50;;
1591;SDS011;789;51.612;7.510;2024-02-04T09:21:51;10.33;;;7.20;;
1591;SDS011;789;51.612;7.510;2024-02-04T09:24:18;8.20;;;6.90;;
1591;SDS011;789;51.612;7.510;2024-02-04T09:26:45;8.80;;;6.50;;
1591;SDS011;789;51.612;7.510;2024-02-04T09:29:12;8.37;;;6.40;;
1591;SDS011;789;51.612;7.510;2024-02-04T09:31:38;7.03;;;6.33;;
1591;SDS011;789;51.612;7.510;2024-02-04T09:34:06;6.50;;;5.90;;
1591;SDS011;789;51.612;7.510;2024-02-04T09:36:35;6.83;;;5.30;;
1591;SDS011;789;51.612;7.510;2024-02-04T09:39:01;7.30;;;5.43;;
1591;SDS011;789;51.612;7.510;2024-02-04T09:41:28;7.83;;;5.00;;
1591;SDS011;789;51.612;7.510;2024-02-04T09:43:55;5.63;;;4.97;;
1591;SDS011;789;51.612;7.510;2024-02-04T09:46:22;7.97;;;4.60;;
1591;SDS011;789;51.612;7.510;2024-02-04T09:48:50;4.50;;;4.10;;
1591;SDS011;789;51.612;7.510;2024-02-04T09:51:20;5.27;;;4.17;;
1591;SDS011;789;51.612;7.510;2024-02-04T09:53:49;5.17;;;4.60;;
1591;SDS011;789;51.612;7.510;2024-02-04T09:56:19;8.40;;;4.70;;
1591;SDS011;789;51.612;7.510;2024-02-04T09:58:48;6.90;;;4.70;;
1591;SDS011;789;51.612;7.510;2024-02-04T10:01:17;5.83;;;4.70;;
1591;SDS011;789;51.612;7.510;2024-02-04T10:03:46;5.90;;;5.07;;
1591;SDS011;789;51.612;7.510;2024-02-04T10:06:13;7.37;;;5.50;;
1591;SDS011;789;51.612;7.510;2024-02-04T10:08:42;5.80;;;5.20;;
1591;SDS011;789;51.612;7.510;2024-02-04T10:11:11;8.20;;;5.80;;
1591;SDS011;789;51.612;7.510;2024-02-04T10:13:44;6.57;;;4.90;;
1591;SDS011;789;51.612;7.510;2024-02-04T10:16:11;8.17;;;5.67;;
1591;SDS011;789;51.612;7.510;2024-02-04T10:18:40;5.97;;;5.37;;
1591;SDS011;789;51.612;7.510;2024-02-04T10:21:16;7.23;;;5.53;;
1591;SDS011;789;51.612;7.510;2024-02-04T10:23:55;7.07;;;5.30;;
1591;SDS011;789;51.612;7.510;2024-02-04T10:26:22;5.47;;;4.87;;
1591;SDS011;789;51.612;7.510;2024-02-04T10:28:48;5.90;;;4.80;;
1591;SDS011;789;51.612;7.510;2024-02-04T10:31:15;7.60;;;4.80;;
1591;SDS011;789;51.612;7.510;2024-02-04T10:33:43;4.23;;;3.83;;
1591;SDS011;789;51.612;7.510;2024-02-04T10:36:09;8.00;;;4.87;;
1591;SDS011;789;51.612;7.510;2024-02-04T10:38:37;5.27;;;4.77;;
1591;SDS011;789;51.612;7.510;2024-02-04T10:41:05;7.23;;;4.60;;
1591;SDS011;789;51.612;7.510;2024-02-04T10:43:33;4.90;;;4.40;;
1591;SDS011;789;51.612;7.510;2024-02-04T10:46:01;7.40;;;5.17;;
1591;SDS011;789;51.612;7.510;2024-02-04T10:48:34;7.13;;;4.57;;
1591;SDS011;789;51.612;7.510;2024-02-04T10:51:08;6.67;;;4.77;;
1591;SDS011;789;51.612;7.510;2024-02-04T10:53:39;7.27;;;5.47;;
1591;SDS011;789;51.612;7.510;2024-02-04T10:56:09;4.80;;;4.40;;
1591;SDS011;789;51.612;7.510;2024-02-04T10:58:39;7.53;;;5.60;;
1591;SDS011;789;51.612;7.510;2024-02-04T11:01:07;7.40;;;6.70;;
1591;SDS011;789;51.612;7.510;2024-02-04T11:03:35;10.07;;;7.90;;
1591;SDS011;789;51.612;7.510;2024-02-04T11:06:02;8.70;;;7.37;;
1591;SDS011;789;51.612;7.510;2024-02-04T11:08:29;9.80;;;8.67;;
1591;SDS011;789;51.612;7.510;2024-02-04T11:10:56;10.10;;;8.97;;
1591;SDS011;789;51.612;7.510;2024-02-04T11:13:24;11.40;;;10.20;;
1591;SDS011;789;51.612;7.510;2024-02-04T11:15:53;11.30;;;10.10;;
1591;SDS011;789;51.612;7.510;2024-02-04T11:21:24;12.47;;;10.70;;
1591;SDS011;789;51.612;7.510;2024-02-04T11:24:08;11.27;;;10.13;;
1591;SDS011;789;51.612;7.510;2024-02-04T11:26:45;11.10;;;9.93;;
1591;SDS011;789;51.612;7.510;2024-02-04T11:29:14;11.70;;;10.57;;
1591;SDS011;789;51.612;7.510;2024-02-04T11:31:42;10.13;;;9.13;;
1591;SDS011;789;51.612;7.510;2024-02-04T11:34:10;10.50;;;8.60;;
1591;SDS011;789;51.612;7.510;2024-02-04T11:36:37;8.67;;;7.80;;
1591;SDS011;789;51.612;7.510;2024-02-04T11:39:11;9.17;;;8.27;;
1591;SDS011;789;51.612;7.510;2024-02-04T11:41:44;8.63;;;7.43;;
1591;SDS011;789;51.612;7.510;2024-02-04T11:44:12;7.43;;;6.70;;
1591;SDS011;789;51.612;7.510;2024-02-04T11:46:46;10.83;;;7.40;;
1591;SDS011;789;51.612;7.510;2024-02-04T11:49:16;7.83;;;6.70;;
1591;SDS011;789;51.612;7.510;2024-02-04T11:51:44;7.00;;;6.30;;
1591;SDS011;789;51.612;7.510;2024-02-04T11:54:13;10.87;;;7.80;;
1591;SDS011;789;51.612;7.510;2024-02-04T11:56:41;7.53;;;6.70;;
1591;SDS011;789;51.612;7.510;2024-02-04T11:59:09;8.37;;;7.10;;
1591;SDS011;789;51.612;7.510;2024-02-04T12:01:37;6.80;;;6.10;;
1591;SDS011;789;51.612;7.510;2024-02-04T12:04:12;9.57;;;6.90;;
1591;SDS011;789;51.612;7.510;2024-02-04T12:06:40;8.10;;;6.80;;
1591;SDS011;789;51.612;7.510;2024-02-04T12:09:08;8.00;;;6.50;;
1591;SDS011;789;51.612;7.510;2024-02-04T12:11:36;6.70;;;5.83;;
1591;SDS011;789;51.612;7.510;2024-02-04T12:14:04;6.90;;;5.83;;
1591;SDS011;789;51.612;7.510;2024-02-04T12:16:31;5.97;;;5.10;;
1591;SDS011;789;51.612;7.510;2024-02-04T12:19:00;6.43;;;4.70;;
1591;SDS011;789;51.612;7.510;2024-02-04T12:21:29;4.93;;;4.37;;
1591;SDS011;789;51.612;7.510;2024-02-04T12:23:57;5.63;;;4.20;;
1591;SDS011;789;51.612;7.510;2024-02-04T12:26:24;6.30;;;3.77;;
1591;SDS011;789;51.612;7.510;2024-02-04T12:28:52;4.37;;;3.97;;
1591;SDS011;789;51.612;7.510;2024-02-04T12:31:20;4.63;;;4.23;;
1591;SDS011;789;51.612;7.510;2024-02-04T12:33:52;5.23;;;4.73;;
1591;SDS011;789;51.612;7.510;2024-02-04T12:36:20;5.50;;;4.63;;
1591;SDS011;789;51.612;7.510;2024-02-04T12:38:52;5.77;;;4.80;;
1591;SDS011;789;51.612;7.510;2024-02-04T12:41:20;5.97;;;5.23;;
1591;SDS011;789;51.612;7.510;2024-02-04T12:43:49;5.50;;;4.87;;
1591;SDS011;789;51.612;7.510;2024-02-04T12:46:16;10.50;;;7.57;;
1591;SDS011;789;51.612;7.510;2024-02-04T12:48:43;6.00;;;5.50;;
1591;SDS011;789;51.612;7.510;2024-02-04T12:51:10;7.73;;;5.90;;
1591;SDS011;789;51.612;7.510;2024-02-04T12:53:36;5.53;;;5.03;;
1591;SDS011;789;51.612;7.510;2024-02-04T12:56:05;10.20;;;6.50;;
1591;SDS011;789;51.612;7.510;2024-02-04T12:58:32;7.60;;;6.83;;
1591;SDS011;789;51.612;7.510;2024-02-04T13:01:08;6.70;;;6.10;;
1591;SDS011;789;51.612;7.510;2024-02-04T13:03:35;6.23;;;5.70;;
1591;SDS011;789;51.612;7.510;2024-02-04T13:06:04;7.20;;;4.90;;
1591;SDS011;789;51.612;7.510;2024-02-04T13:08:32;6.30;;;5.70;;
1591;SDS011;789;51.612;7.510;2024-02-04T13:10:59;5.50;;;5.00;;
1591;SDS011;789;51.612;7.510;2024-02-04T13:13:28;6.27;;;5.77;;
1591;SDS011;789;51.612;7.510;2024-02-04T13:15:55;6.63;;;6.13;;
1591;SDS011;789;51.612;7.510;2024-02-04T13:18:22;7.63;;;6.93;;
1591;SDS011;789;51.612;7.510;2024-02-04T13:20:49;7.97;;;7.37;;
1591;SDS011;789;51.612;7.510;2024-02-04T13:23:16;8.77;;;8.00;;
1591;SDS011;789;51.612;7.510;2024-02-04T13:25:45;10.40;;;9.40;;
1591;SDS011;789;51.612;7.510;2024-02-04T13:28:12;9.13;;;8.33;;
1591;SDS011;789;51.612;7.510;2024-02-04T13:30:41;10.17;;;9.33;;
1591;SDS011;789;51.612;7.510;2024-02-04T13:33:09;10.80;;;9.70;;
1591;SDS011;789;51.612;7.510;2024-02-04T13:35:36;10.97;;;9.80;;
1591;SDS011;789;51.612;7.510;2024-02-04T13:38:02;10.47;;;9.57;;
1591;SDS011;789;51.612;7.510;2024-02-04T13:40:30;11.07;;;9.57;;
1591;SDS011;789;51.612;7.510;2024-02-04T13:42:58;10.63;;;9.70;;
1591;SDS011;789;51.612;7.510;2024-02-04T13:45:25;10.80;;;9.80;;
1591;SDS011;789;51.612;7.510;2024-02-04T13:47:53;11.40;;;10.00;;
1591;SDS011;789;51.612;7.510;2024-02-04T13:50:20;10.90;;;9.90;;
1591;SDS011;789;51.612;7.510;2024-02-04T13:52:47;10.50;;;9.00;;
1591;SDS011;789;51.612;7.510;2024-02-04T13:55:13;10.40;;;9.50;;
1591;SDS011;789;51.612;7.510;2024-02-04T13:57:40;11.77;;;10.67;;
1591;SDS011;789;51.612;7.510;2024-02-04T14:00:07;9.83;;;8.90;;
1591;SDS011;789;51.612;7.510;2024-02-04T14:02:35;9.93;;;8.97;;
1591;SDS011;789;51.612;7.510;2024-02-04T14:05:05;8.50;;;7.60;;
1591;SDS011;789;51.612;7.510;2024-02-04T14:07:32;9.60;;;8.70;;
1591;SDS011;789;51.612;7.510;2024-02-04T14:09:59;10.70;;;9.70;;
1591;SDS011;789;51.612;7.510;2024-02-04T14:12:29;10.17;;;9.17;;
1591;SDS011;789;51.612;7.510;2024-02-04T14:14:56;8.40;;;7.70;;
1591;SDS011;789;51.612;7.510;2024-02-04T14:17:23;8.40;;;7.40;;
1591;SDS011;789;51.612;7.510;2024-02-04T14:19:50;8.77;;;7.97;;
1591;SDS011;789;51.612;7.510;2024-02-04T14:22:19;8.33;;;7.53;;
1591;SDS011;789;51.612;7.510;2024-02-04T14:24:47;7.63;;;6.93;;
1591;SDS011;789;51.612;7.510;2024-02-04T14:27:17;7.10;;;6.40;;
1591;SDS011;789;51.612;7.510;2024-02-04T14:29:44;7.83;;;7.03;;
1591;SDS011;789;51.612;7.510;2024-02-04T14:32:10;8.23;;;7.43;;
1591;SDS011;789;51.612;7.510;2024-02-04T14:34:37;7.30;;;6.60;;
1591;SDS011;789;51.612;7.510;2024-02-04T14:37:04;6.93;;;6.33;;
1591;SDS011;789;51.612;7.510;2024-02-04T14:39:33;7.77;;;6.97;;
1591;SDS011;789;51.612;7.510;2024-02-04T14:42:03;7.53;;;6.73;;
1591;SDS011;789;51.612;7.510;2024-02-04T14:44:30;7.60;;;6.90;;
1591;SDS011;789;51.612;7.510;2024-02-04T14:46:57;8.47;;;7.67;;
1591;SDS011;789;51.612;7.510;2024-02-04T14:49:24;9.37;;;8.33;;
1591;SDS011;789;51.612;7.510;2024-02-04T14:51:52;8.53;;;7.83;;
1591;SDS011;789;51.612;7.510;2024-02-04T14:54:18;10.47;;;7.40;;
1591;SDS011;789;51.612;7.510;2024-02-04T14:56:47;7.97;;;7.30;;
1591;SDS011;789;51.612;7.510;2024-02-04T14:59:16;7.13;;;6.53;;
1591;SDS011;789;51.612;7.510;2024-02-04T15:01:44;8.73;;;7.90;;
1591;SDS011;789;51.612;7.510;2024-02-04T15:04:12;7.40;;;6.70;;
1591;SDS011;789;51.612;7.510;2024-02-04T15:06:39;8.10;;;7.30;;
1591;SDS011;789;51.612;7.510;2024-02-04T15:09:06;7.63;;;6.83;;
1591;SDS011;789;51.612;7.510;2024-02-04T15:11:35;10.53;;;7.87;;
1591;SDS011;789;51.612;7.510;2024-02-04T15:14:03;8.10;;;7.37;;
1591;SDS011;789;51.612;7.510;2024-02-04T15:16:31;8.60;;;7.47;;
1591;SDS011;789;51.612;7.510;2024-02-04T15:18:59;8.20;;;7.40;;